createdAt,value
2023-02-01T00:01:14.023Z,2.20
2023-02-01T00:03:41.896Z,2.10
2023-02-01T00:06:09.766Z,1.50
2023-02-01T00:08:37.536Z,1.70
2023-02-01T00:11:09.969Z,1.40
2023-02-01T00:13:40.765Z,2.30
2023-02-01T00:16:19.371Z,2.10
2023-02-01T00:18:50.549Z,2.40
2023-02-01T00:21:23.363Z,1.50
2023-02-01T00:23:51.046Z,1.50
2023-02-01T00:26:26.269Z,1.30
2023-02-01T00:28:54.389Z,1.30
2023-02-01T00:31:22.426Z,1.10
2023-02-01T00:33:50.855Z,1.30
2023-02-01T00:36:18.912Z,1.20
2023-02-01T00:38:46.792Z,1.40
2023-02-01T00:41:20.627Z,1.50
2023-02-01T00:43:49.701Z,0.80
2023-02-01T00:46:20.185Z,1.30
2023-02-01T00:48:48.756Z,0.80
2023-02-01T00:51:21.253Z,1.40
2023-02-01T00:53:50.303Z,1.30
2023-02-01T00:56:19.057Z,1.10
2023-02-01T00:58:46.875Z,1.50
2023-02-01T01:01:22.846Z,0.90
2023-02-01T01:03:58.508Z,0.80
2023-02-01T01:06:30.424Z,0.80
2023-02-01T01:09:01.636Z,1.30
2023-02-01T01:11:35.261Z,1.20
2023-02-01T01:14:05.625Z,0.80
2023-02-01T01:16:34.818Z,1.30
2023-02-01T01:19:03.448Z,1.00
2023-02-01T01:21:31.495Z,1.20
2023-02-01T01:23:59.523Z,0.70
2023-02-01T01:26:30.663Z,1.00
2023-02-01T01:29:00.288Z,1.00
2023-02-01T01:31:30.283Z,0.80
2023-02-01T01:34:00.525Z,0.90
2023-02-01T01:36:29.446Z,0.80
2023-02-01T01:38:57.159Z,1.10
2023-02-01T01:41:33.195Z,0.90
2023-02-01T01:44:06.370Z,0.90
2023-02-01T01:46:38.597Z,0.90
2023-02-01T01:49:20.115Z,1.00
2023-02-01T01:51:54.343Z,1.40
2023-02-01T01:54:41.789Z,1.20
2023-02-01T01:57:35.741Z,0.90
2023-02-01T02:00:14.650Z,1.00
2023-02-01T02:02:47.641Z,1.10
2023-02-01T02:05:18.538Z,1.60
2023-02-01T02:07:50.233Z,1.60
2023-02-01T02:10:18.131Z,2.80
2023-02-01T02:12:51.630Z,1.60
2023-02-01T02:15:19.578Z,1.30
2023-02-01T02:18:13.952Z,1.70
2023-02-01T02:21:16.445Z,2.30
2023-02-01T02:24:24.616Z,1.30
2023-02-01T02:27:26.515Z,1.10
2023-02-01T02:30:34.384Z,1.50
2023-02-01T02:33:38.427Z,1.00
2023-02-01T02:36:26.082Z,1.50
2023-02-01T02:39:15.649Z,1.10
2023-02-01T02:42:13.367Z,1.00
2023-02-01T02:45:24.102Z,1.10
2023-02-01T02:48:17.726Z,1.10
2023-02-01T02:51:10.770Z,1.10
2023-02-01T02:54:24.789Z,1.20
2023-02-01T02:57:14.661Z,1.30
2023-02-01T03:00:05.138Z,1.20
2023-02-01T03:02:53.931Z,1.00
2023-02-01T03:05:21.965Z,1.50
2023-02-01T03:08:15.911Z,1.50
2023-02-01T03:11:09.188Z,1.60
2023-02-01T03:13:53.952Z,1.20
2023-02-01T03:16:40.311Z,1.80
2023-02-01T03:19:22.343Z,1.40
2023-02-01T03:22:15.644Z,2.40
2023-02-01T03:24:48.830Z,2.20
2023-02-01T03:27:23.966Z,1.50
2023-02-01T03:30:06.735Z,1.50
2023-02-01T03:32:57.131Z,1.50
2023-02-01T03:36:18.690Z,1.10
2023-02-01T03:39:30.577Z,1.20
2023-02-01T03:42:06.012Z,1.90
2023-02-01T03:44:42.561Z,1.60
2023-02-01T03:47:22.499Z,1.70
2023-02-01T03:50:01.582Z,2.00
2023-02-01T03:52:52.114Z,1.40
2023-02-01T03:55:25.558Z,1.50
2023-02-01T03:58:05.187Z,1.60
2023-02-01T04:00:33.020Z,1.70
2023-02-01T04:03:00.819Z,1.50
2023-02-01T04:05:28.590Z,1.70
2023-02-01T04:07:56.239Z,1.70
2023-02-01T04:10:24.637Z,2.10
2023-02-01T04:12:53.075Z,2.40
2023-02-01T04:15:20.802Z,2.00
2023-02-01T04:17:48.533Z,1.90
2023-02-01T04:20:16.738Z,2.50
2023-02-01T04:22:44.877Z,1.40
2023-02-01T04:25:12.613Z,1.80
2023-02-01T04:27:42.978Z,1.90
2023-02-01T04:30:12.237Z,2.00
2023-02-01T04:32:40.219Z,3.00
2023-02-01T04:35:08.732Z,2.80
2023-02-01T04:37:36.890Z,2.70
2023-02-01T04:40:06.793Z,1.90
2023-02-01T04:42:34.447Z,2.80
2023-02-01T04:45:02.822Z,2.50
2023-02-01T04:47:30.556Z,1.60
2023-02-01T04:49:58.341Z,1.80
2023-02-01T04:52:26.030Z,2.60
2023-02-01T04:54:56.563Z,2.50
2023-02-01T04:57:25.226Z,2.90
2023-02-01T04:59:52.870Z,2.60
2023-02-01T05:02:20.857Z,2.30
2023-02-01T05:04:48.577Z,2.70
2023-02-01T05:07:16.305Z,2.80
2023-02-01T05:09:43.972Z,2.70
2023-02-01T05:12:32.626Z,2.70
2023-02-01T05:15:00.619Z,3.00
2023-02-01T05:17:28.706Z,3.50
2023-02-01T05:19:56.417Z,3.00
2023-02-01T05:22:24.168Z,2.90
2023-02-01T05:24:51.978Z,2.80
2023-02-01T05:27:19.763Z,4.50
2023-02-01T05:29:47.511Z,3.20
2023-02-01T05:32:22.864Z,3.10
2023-02-01T05:34:51.235Z,2.80
2023-02-01T05:37:19.007Z,3.80
2023-02-01T05:39:46.731Z,4.50
2023-02-01T05:42:14.497Z,3.90
2023-02-01T05:44:42.177Z,3.50
2023-02-01T05:47:10.130Z,3.20
2023-02-01T05:49:37.790Z,3.70
2023-02-01T05:52:06.319Z,2.60
2023-02-01T05:54:34.105Z,2.70
2023-02-01T05:57:01.803Z,3.80
2023-02-01T05:59:30.445Z,2.20
2023-02-01T06:02:00.342Z,3.10
2023-02-01T06:04:28.081Z,2.80
2023-02-01T06:06:55.733Z,2.60
2023-02-01T06:09:23.335Z,3.10
2023-02-01T06:11:51.146Z,4.50
2023-02-01T06:14:18.824Z,5.60
2023-02-01T06:16:47.683Z,5.40
2023-02-01T06:19:15.463Z,4.60
2023-02-01T06:21:43.098Z,5.40
2023-02-01T06:24:10.881Z,4.80
2023-02-01T06:26:40.064Z,4.10
2023-02-01T06:29:10.908Z,3.00
2023-02-01T06:31:38.796Z,2.90
2023-02-01T06:34:06.594Z,3.50
2023-02-01T06:36:36.920Z,3.10
2023-02-01T06:39:04.735Z,4.40
2023-02-01T06:41:32.432Z,2.80
2023-02-01T06:44:00.213Z,3.00
2023-02-01T06:46:30.111Z,4.30
2023-02-01T06:48:57.863Z,2.70
2023-02-01T06:51:29.417Z,3.20
2023-02-01T06:53:58.094Z,3.60
2023-02-01T06:56:26.523Z,2.40
2023-02-01T06:58:55.131Z,3.00
2023-02-01T07:01:22.948Z,3.30
2023-02-01T07:03:52.125Z,3.30
2023-02-01T07:06:20.535Z,3.50
2023-02-01T07:08:48.439Z,3.20
2023-02-01T07:11:19.396Z,3.60
2023-02-01T07:13:47.247Z,3.40
2023-02-01T07:16:19.207Z,3.60
2023-02-01T07:18:47.997Z,3.30
2023-02-01T07:21:15.780Z,3.80
2023-02-01T07:23:46.699Z,3.50
2023-02-01T07:26:15.399Z,2.90
2023-02-01T07:28:43.571Z,3.20
2023-02-01T07:31:20.030Z,2.90
2023-02-01T07:33:49.535Z,1.70
2023-02-01T07:36:18.239Z,2.20
2023-02-01T07:38:50.534Z,2.60
2023-02-01T07:41:18.923Z,2.60
2023-02-01T07:43:47.236Z,2.50
2023-02-01T07:46:16.320Z,2.60
2023-02-01T07:48:44.357Z,2.80
2023-02-01T07:51:15.777Z,2.70
2023-02-01T07:53:45.120Z,3.70
2023-02-01T07:56:17.156Z,2.80
2023-02-01T07:58:52.433Z,2.10
2023-02-01T08:01:27.622Z,2.50
2023-02-01T08:04:00.479Z,2.10
2023-02-01T08:06:32.324Z,2.40
2023-02-01T08:09:00.321Z,3.70
2023-02-01T08:11:29.222Z,2.50
2023-02-01T08:13:57.167Z,2.20
2023-02-01T08:16:26.297Z,2.50
2023-02-01T08:18:55.203Z,1.80
2023-02-01T08:21:27.013Z,7.90
2023-02-01T08:23:54.871Z,4.10
2023-02-01T08:26:26.839Z,3.20
2023-02-01T08:29:02.090Z,3.00
2023-02-01T08:31:31.101Z,2.50
2023-02-01T08:34:09.290Z,3.20
2023-02-01T08:36:39.247Z,2.60
2023-02-01T08:39:10.048Z,3.50
2023-02-01T08:41:39.094Z,3.00
2023-02-01T08:44:06.816Z,2.70
2023-02-01T08:46:34.528Z,3.80
2023-02-01T08:49:02.193Z,4.00
2023-02-01T08:51:29.989Z,3.20
2023-02-01T08:53:57.722Z,2.50
2023-02-01T08:56:25.467Z,5.50
2023-02-01T08:58:53.173Z,5.60
2023-02-01T09:01:20.967Z,5.00
2023-02-01T09:03:48.713Z,4.80
2023-02-01T09:06:17.206Z,3.70
2023-02-01T09:08:47.691Z,2.60
2023-02-01T09:11:22.367Z,3.40
2023-02-01T09:13:50.285Z,3.30
2023-02-01T09:16:18.399Z,3.60
2023-02-01T09:18:56.022Z,3.30
2023-02-01T09:21:34.235Z,3.60
2023-02-01T09:24:02.608Z,3.30
2023-02-01T09:26:32.697Z,5.30
2023-02-01T09:29:02.007Z,6.40
2023-02-01T09:31:31.509Z,2.80
2023-02-01T09:33:59.487Z,3.60
2023-02-01T09:36:29.993Z,3.80
2023-02-01T09:39:00.048Z,3.40
2023-02-01T09:42:08.550Z,4.70
2023-02-01T09:44:58.248Z,3.40
2023-02-01T09:47:28.655Z,3.50
2023-02-01T09:50:07.426Z,3.00
2023-02-01T09:52:48.612Z,2.80
2023-02-01T09:55:41.485Z,2.30
2023-02-01T09:58:17.515Z,2.10
2023-02-01T10:00:55.487Z,3.50
2023-02-01T10:03:29.433Z,3.40
2023-02-01T10:06:15.179Z,3.00
2023-02-01T10:09:11.573Z,2.90
2023-02-01T10:12:16.318Z,3.70
2023-02-01T10:15:25.450Z,2.90
2023-02-01T10:18:25.815Z,2.20
2023-02-01T10:21:09.290Z,3.60
2023-02-01T10:24:16.828Z,2.30
2023-02-01T10:26:53.356Z,3.70
2023-02-01T10:29:28.487Z,2.80
2023-02-01T10:31:56.509Z,3.90
2023-02-01T10:34:37.342Z,2.60
2023-02-01T10:37:28.350Z,2.30
2023-02-01T10:39:59.831Z,3.20
2023-02-01T10:42:30.429Z,3.20
2023-02-01T10:45:04.453Z,3.80
2023-02-01T10:47:32.393Z,2.80
2023-02-01T10:50:18.624Z,5.70
2023-02-01T10:52:55.275Z,2.90
2023-02-01T10:55:50.456Z,3.70
2023-02-01T10:58:33.675Z,4.30
2023-02-01T11:01:11.261Z,4.40
2023-02-01T11:03:54.532Z,3.80
2023-02-01T11:06:36.610Z,3.50
2023-02-01T11:09:07.275Z,2.70
2023-02-01T11:11:57.751Z,3.00
2023-02-01T11:14:25.373Z,3.50
2023-02-01T11:17:01.811Z,3.60
2023-02-01T11:19:30.151Z,3.30
2023-02-01T11:22:02.127Z,5.30
2023-02-01T11:24:36.569Z,6.90
2023-02-01T11:27:16.059Z,7.30
2023-02-01T11:29:58.530Z,6.90
2023-02-01T11:32:28.190Z,3.80
2023-02-01T11:35:07.199Z,3.70
2023-02-01T11:37:40.822Z,3.00
2023-02-01T11:40:17.631Z,3.00
2023-02-01T11:43:07.964Z,3.10
2023-02-01T11:45:38.365Z,3.60
2023-02-01T11:48:26.295Z,3.10
2023-02-01T11:51:39.871Z,6.00
2023-02-01T11:54:36.176Z,4.40
2023-02-01T11:57:25.066Z,3.60
2023-02-01T12:00:05.180Z,2.70
2023-02-01T12:02:50.247Z,3.40
2023-02-01T12:05:42.634Z,3.80
2023-02-01T12:08:46.119Z,3.40
2023-02-01T12:11:32.502Z,2.30
2023-02-01T12:14:36.531Z,2.50
2023-02-01T12:17:26.480Z,4.30
2023-02-01T12:20:15.238Z,3.70
2023-02-01T12:23:27.652Z,2.70
2023-02-01T12:26:27.292Z,2.70
2023-02-01T12:29:16.193Z,4.10
2023-02-01T12:32:10.118Z,4.60
2023-02-01T12:35:03.597Z,3.30
2023-02-01T12:37:45.336Z,2.40
2023-02-01T12:40:54.021Z,2.70
2023-02-01T12:43:39.971Z,3.10
2023-02-01T12:46:43.138Z,3.50
2023-02-01T12:49:26.466Z,3.00
2023-02-01T12:52:07.867Z,4.00
2023-02-01T12:54:46.814Z,3.50
2023-02-01T12:57:28.615Z,2.80
2023-02-01T13:00:29.420Z,2.10
2023-02-01T13:03:12.778Z,3.10
2023-02-01T13:06:03.589Z,3.10
2023-02-01T13:08:57.699Z,4.20
2023-02-01T13:11:30.866Z,2.90
2023-02-01T13:14:33.279Z,3.50
2023-02-01T13:17:05.587Z,5.00
2023-02-01T13:20:01.986Z,4.50
2023-02-01T13:22:38.559Z,4.30
2023-02-01T13:25:28.407Z,3.30
2023-02-01T13:28:02.101Z,6.30
2023-02-01T13:31:10.512Z,5.00
2023-02-01T13:34:03.538Z,4.80
2023-02-01T13:37:08.806Z,3.60
2023-02-01T13:40:04.641Z,2.40
2023-02-01T13:42:51.424Z,3.20
2023-02-01T13:45:25.709Z,2.50
2023-02-01T13:47:59.860Z,1.60
2023-02-01T13:50:42.259Z,2.60
2023-02-01T13:53:12.966Z,3.50
2023-02-01T13:55:45.683Z,3.00
2023-02-01T13:58:21.609Z,2.50
2023-02-01T14:00:54.500Z,2.10
2023-02-01T14:03:44.600Z,1.50
2023-02-01T14:06:43.268Z,2.20
2023-02-01T14:09:13.371Z,3.60
2023-02-01T14:12:28.363Z,2.00
2023-02-01T14:15:25.831Z,3.80
2023-02-01T14:17:55.780Z,3.40
2023-02-01T14:20:50.200Z,5.00
2023-02-01T14:23:22.393Z,3.50
2023-02-01T14:26:11.416Z,5.30
2023-02-01T14:28:58.992Z,3.20
2023-02-01T14:32:20.597Z,2.70
2023-02-01T14:34:48.486Z,3.70
2023-02-01T14:37:19.768Z,3.90
2023-02-01T14:39:48.122Z,4.40
2023-02-01T14:42:28.271Z,9.50
2023-02-01T14:45:26.280Z,5.30
2023-02-01T14:48:07.152Z,4.30
2023-02-01T14:50:42.607Z,6.80
2023-02-01T14:53:14.034Z,4.50
2023-02-01T14:56:22.901Z,6.10
2023-02-01T14:59:05.160Z,8.40
2023-02-01T15:01:39.950Z,7.30
2023-02-01T15:04:19.556Z,11.50
2023-02-01T15:06:57.607Z,10.00
2023-02-01T15:09:37.445Z,8.10
2023-02-01T15:12:25.156Z,11.20
2023-02-01T15:15:18.384Z,7.40
2023-02-01T15:17:53.739Z,10.60
2023-02-01T15:20:28.606Z,10.50
2023-02-01T15:23:05.519Z,7.20
2023-02-01T15:25:39.337Z,5.40
2023-02-01T15:28:15.367Z,5.80
2023-02-01T15:31:06.587Z,7.30
2023-02-01T15:33:37.191Z,9.80
2023-02-01T15:36:17.760Z,14.40
2023-02-01T15:38:46.142Z,15.70
2023-02-01T15:41:22.922Z,12.80
2023-02-01T15:43:58.586Z,20.10
2023-02-01T15:46:39.882Z,15.60
2023-02-01T15:49:34.195Z,8.60
2023-02-01T15:52:04.457Z,11.50
2023-02-01T15:54:50.213Z,13.00
2023-02-01T15:57:32.763Z,16.90
2023-02-01T16:00:28.608Z,37.90
2023-02-01T16:03:06.393Z,7.90
2023-02-01T16:05:43.552Z,7.60
2023-02-01T16:08:22.798Z,6.50
2023-02-01T16:11:14.267Z,5.80
2023-02-01T16:13:42.284Z,10.30
2023-02-01T16:16:14.820Z,8.30
2023-02-01T16:18:55.793Z,8.80
2023-02-01T16:21:24.063Z,9.50
2023-02-01T16:23:53.532Z,8.00
2023-02-01T16:26:22.007Z,12.50
2023-02-01T16:28:49.806Z,22.70
2023-02-01T16:31:30.017Z,19.30
2023-02-01T16:33:58.787Z,10.30
2023-02-01T16:36:28.070Z,12.00
2023-02-01T16:38:56.740Z,7.90
2023-02-01T16:41:26.386Z,9.00
2023-02-01T16:43:56.164Z,6.50
2023-02-01T16:46:29.783Z,10.80
2023-02-01T16:49:00.142Z,10.40
2023-02-01T16:51:33.606Z,10.10
2023-02-01T16:54:02.375Z,10.30
2023-02-01T16:56:34.318Z,12.80
2023-02-01T16:59:02.819Z,14.90
2023-02-01T17:01:32.722Z,10.50
2023-02-01T17:04:00.350Z,12.30
2023-02-01T17:06:28.608Z,10.60
2023-02-01T17:09:01.235Z,10.40
2023-02-01T17:11:32.792Z,11.10
2023-02-01T17:14:18.746Z,10.30
2023-02-01T17:16:49.959Z,11.30
2023-02-01T17:19:24.481Z,11.10
2023-02-01T17:21:59.692Z,8.20
2023-02-01T17:24:46.622Z,7.70
2023-02-01T17:27:18.025Z,17.00
2023-02-01T17:29:47.056Z,18.00
2023-02-01T17:32:25.686Z,11.70
2023-02-01T17:34:55.682Z,8.30
2023-02-01T17:37:28.407Z,8.60
2023-02-01T17:39:56.215Z,7.70
2023-02-01T17:42:26.811Z,6.30
2023-02-01T17:45:22.080Z,5.90
2023-02-01T17:47:50.008Z,6.00
2023-02-01T17:50:18.076Z,7.20
2023-02-01T17:52:45.811Z,5.50
2023-02-01T17:55:22.738Z,7.20
2023-02-01T17:57:50.982Z,7.30
2023-02-01T18:00:20.094Z,4.90
2023-02-01T18:02:48.097Z,5.90
2023-02-01T18:05:29.272Z,5.20
2023-02-01T18:07:57.418Z,5.60
2023-02-01T18:10:25.044Z,4.90
2023-02-01T18:12:52.809Z,6.10
2023-02-01T18:15:25.250Z,5.30
2023-02-01T18:17:53.251Z,6.00
2023-02-01T18:20:24.815Z,7.20
2023-02-01T18:22:53.315Z,5.00
2023-02-01T18:25:28.012Z,5.40
2023-02-01T18:27:57.541Z,5.80
2023-02-01T18:30:32.634Z,5.60
2023-02-01T18:33:01.591Z,5.60
2023-02-01T18:35:32.745Z,5.00
2023-02-01T18:38:02.582Z,5.60
2023-02-01T18:40:35.363Z,4.00
2023-02-01T18:43:04.089Z,4.00
2023-02-01T18:45:44.984Z,4.90
2023-02-01T18:48:17.002Z,6.30
2023-02-01T18:50:46.306Z,5.10
2023-02-01T18:53:20.368Z,5.00
2023-02-01T18:55:48.974Z,5.50
2023-02-01T18:58:18.211Z,6.40
2023-02-01T19:00:47.619Z,5.20
2023-02-01T19:03:16.159Z,6.80
2023-02-01T19:05:45.775Z,6.50
2023-02-01T19:08:13.582Z,5.20
2023-02-01T19:10:44.597Z,4.80
2023-02-01T19:13:13.427Z,5.10
2023-02-01T19:15:42.767Z,4.70
2023-02-01T19:18:10.876Z,5.90
2023-02-01T19:20:45.544Z,5.40
2023-02-01T19:23:14.332Z,6.00
2023-02-01T19:25:47.741Z,6.40
2023-02-01T19:28:16.232Z,5.70
2023-02-01T19:30:45.073Z,6.00
2023-02-01T19:33:13.013Z,8.60
2023-02-01T19:35:40.931Z,9.70
2023-02-01T19:38:11.483Z,13.40
2023-02-01T19:40:39.248Z,13.50
2023-02-01T19:43:06.929Z,7.30
2023-02-01T19:45:35.969Z,7.00
2023-02-01T19:48:07.394Z,6.60
2023-02-01T19:50:35.213Z,6.50
2023-02-01T19:53:03.110Z,6.60
2023-02-01T19:55:31.326Z,5.10
2023-02-01T19:58:02.430Z,5.00
2023-02-01T20:00:30.030Z,6.80
2023-02-01T20:02:58.491Z,6.20
2023-02-01T20:05:26.393Z,6.30
2023-02-01T20:07:54.071Z,6.70
2023-02-01T20:10:22.127Z,5.80
2023-02-01T20:12:49.879Z,6.10
2023-02-01T20:15:17.672Z,6.10
2023-02-01T20:17:45.628Z,5.80
2023-02-01T20:20:15.053Z,5.90
2023-02-01T20:22:45.365Z,4.50
2023-02-01T20:25:15.335Z,5.30
2023-02-01T20:27:43.970Z,4.40
2023-02-01T20:30:14.266Z,5.10
2023-02-01T20:32:44.326Z,7.10
2023-02-01T20:35:12.741Z,5.30
2023-02-01T20:37:42.755Z,5.00
2023-02-01T20:40:12.324Z,5.80
2023-02-01T20:42:41.588Z,6.20
2023-02-01T20:45:10.009Z,5.80
2023-02-01T20:47:37.770Z,8.90
2023-02-01T20:50:06.128Z,7.20
2023-02-01T20:52:33.800Z,7.00
2023-02-01T20:55:01.501Z,5.10
2023-02-01T20:57:29.352Z,5.80
2023-02-01T20:59:56.992Z,5.60
2023-02-01T21:02:25.476Z,6.70
2023-02-01T21:04:53.223Z,7.60
2023-02-01T21:07:21.001Z,6.90
2023-02-01T21:09:48.643Z,6.50
2023-02-01T21:12:16.696Z,5.20
2023-02-01T21:14:44.405Z,6.10
2023-02-01T21:17:12.629Z,7.50
2023-02-01T21:19:43.466Z,6.60
2023-02-01T21:22:14.276Z,7.90
2023-02-01T21:24:42.768Z,6.00
2023-02-01T21:27:10.739Z,5.80
2023-02-01T21:29:41.204Z,4.40
2023-02-01T21:32:09.737Z,4.50
2023-02-01T21:34:37.465Z,3.80
2023-02-01T21:37:05.140Z,4.00
2023-02-01T21:39:32.799Z,4.70
2023-02-01T21:42:30.208Z,3.80
2023-02-01T21:44:59.456Z,3.00
2023-02-01T21:47:27.168Z,4.20
2023-02-01T21:49:55.421Z,4.30
2023-02-01T21:52:24.361Z,3.60
2023-02-01T21:54:59.378Z,3.40
2023-02-01T21:57:29.534Z,3.40
2023-02-01T21:59:58.973Z,4.30
2023-02-01T22:02:27.609Z,5.20
2023-02-01T22:04:57.732Z,3.90
2023-02-01T22:07:25.478Z,3.20
2023-02-01T22:09:53.109Z,2.20
2023-02-01T22:12:20.838Z,2.20
2023-02-01T22:14:49.643Z,2.70
2023-02-01T22:17:17.261Z,2.10
2023-02-01T22:19:47.257Z,3.40
2023-02-01T22:22:15.043Z,3.90
2023-02-01T22:24:42.831Z,2.10
2023-02-01T22:27:13.353Z,1.70
2023-02-01T22:29:45.434Z,1.50
2023-02-01T22:32:16.234Z,1.40
2023-02-01T22:34:43.947Z,0.80
2023-02-01T22:37:12.285Z,0.90
2023-02-01T22:39:41.186Z,1.30
2023-02-01T22:42:09.368Z,1.50
2023-02-01T22:44:37.066Z,0.90
2023-02-01T22:47:04.891Z,1.40
2023-02-01T22:49:32.600Z,1.90
2023-02-01T22:52:00.199Z,1.40
2023-02-01T22:54:27.897Z,1.20
2023-02-01T22:56:55.562Z,2.30
2023-02-01T22:59:23.518Z,1.40
2023-02-01T23:01:51.236Z,1.40
2023-02-01T23:04:20.626Z,1.50
2023-02-01T23:06:52.150Z,2.00
2023-02-01T23:09:25.108Z,2.00
2023-02-01T23:11:55.164Z,2.90
2023-02-01T23:14:23.059Z,1.90
2023-02-01T23:16:51.535Z,2.50
2023-02-01T23:19:20.577Z,2.00
2023-02-01T23:21:49.114Z,1.80
2023-02-01T23:24:16.865Z,1.60
2023-02-01T23:26:44.601Z,1.80
2023-02-01T23:29:18.460Z,1.30
2023-02-01T23:31:46.508Z,2.10
2023-02-01T23:34:14.416Z,2.20
2023-02-01T23:36:42.097Z,2.10
2023-02-01T23:39:09.705Z,1.60
2023-02-01T23:41:39.581Z,1.80
2023-02-01T23:44:07.178Z,2.10
2023-02-01T23:46:40.039Z,2.00
2023-02-01T23:49:09.630Z,1.60
2023-02-01T23:51:37.561Z,2.00
2023-02-01T23:54:07.340Z,1.30
2023-02-01T23:56:39.566Z,2.30
2023-02-01T23:59:20.399Z,3.00
